createdAt,value
2019-02-09T00:00:37.634Z,19.23
2019-02-09T00:03:07.968Z,22.67
2019-02-09T00:05:36.971Z,20.30
2019-02-09T00:08:08.879Z,19.80
2019-02-09T00:10:37.598Z,22.70
2019-02-09T00:13:06.418Z,21.57
2019-02-09T00:15:36.115Z,20.33
2019-02-09T00:18:08.562Z,20.33
2019-02-09T00:20:37.288Z,24.33
2019-02-09T00:23:06.850Z,26.23
2019-02-09T00:25:35.774Z,23.17
2019-02-09T00:28:05.212Z,23.63
2019-02-09T00:30:33.976Z,28.27
2019-02-09T00:33:02.713Z,22.63
2019-02-09T00:35:31.434Z,26.33
2019-02-09T00:38:00.305Z,20.93
2019-02-09T00:40:30.040Z,24.47
2019-02-09T00:42:58.772Z,20.70
2019-02-09T00:45:29.349Z,22.30
2019-02-09T00:47:58.079Z,27.17
2019-02-09T00:50:26.804Z,26.03
2019-02-09T00:52:55.589Z,21.50
2019-02-09T00:55:28.284Z,26.93
2019-02-09T00:57:57.168Z,29.83
2019-02-09T01:00:33.014Z,25.27
2019-02-09T01:03:01.839Z,25.10
2019-02-09T01:05:39.199Z,24.43
2019-02-09T01:08:08.033Z,22.63
2019-02-09T01:10:36.868Z,24.03
2019-02-09T01:13:05.936Z,22.30
2019-02-09T01:15:34.658Z,23.60
2019-02-09T01:18:03.391Z,25.33
2019-02-09T01:20:32.397Z,21.70
2019-02-09T01:23:01.827Z,24.00
2019-02-09T01:25:30.556Z,23.07
2019-02-09T01:27:59.531Z,23.87
2019-02-09T01:30:29.559Z,21.23
2019-02-09T01:32:58.484Z,21.23
2019-02-09T01:35:27.692Z,22.53
2019-02-09T01:37:56.510Z,22.47
2019-02-09T01:40:29.942Z,22.57
2019-02-09T01:42:58.729Z,24.53
2019-02-09T01:45:30.297Z,24.03
2019-02-09T01:47:59.325Z,27.30
2019-02-09T01:50:30.516Z,23.80
2019-02-09T01:52:59.425Z,26.10
2019-02-09T01:55:28.955Z,25.20
2019-02-09T01:57:58.639Z,27.10
2019-02-09T02:00:29.947Z,27.90
2019-02-09T02:02:58.878Z,25.93
2019-02-09T02:05:28.013Z,24.63
2019-02-09T02:07:56.946Z,22.80
2019-02-09T02:10:39.088Z,24.10
2019-02-09T02:13:09.721Z,25.87
2019-02-09T02:15:39.023Z,24.33
2019-02-09T02:18:08.607Z,22.83
2019-02-09T02:20:37.633Z,22.87
2019-02-09T02:23:06.651Z,23.43
2019-02-09T02:25:35.714Z,22.90
2019-02-09T02:28:04.753Z,22.60
2019-02-09T02:30:35.802Z,25.20
2019-02-09T02:33:05.443Z,23.17
2019-02-09T02:35:34.267Z,21.40
2019-02-09T02:38:02.995Z,23.90
2019-02-09T02:40:31.875Z,26.47
2019-02-09T02:43:00.612Z,22.93
2019-02-09T02:45:29.441Z,23.73
2019-02-09T02:47:58.305Z,22.53
2019-02-09T02:50:27.024Z,24.53
2019-02-09T02:52:55.748Z,23.07
2019-02-09T02:55:26.814Z,27.90
2019-02-09T02:57:55.637Z,26.80
2019-02-09T03:00:32.257Z,25.17
2019-02-09T03:03:00.793Z,26.70
2019-02-09T03:05:29.519Z,26.80
2019-02-09T03:07:58.289Z,26.70
2019-02-09T03:10:27.014Z,24.00
2019-02-09T03:12:55.740Z,24.67
2019-02-09T03:15:29.479Z,26.77
2019-02-09T03:17:58.206Z,26.30
2019-02-09T03:20:27.235Z,28.37
2019-02-09T03:22:56.228Z,27.03
2019-02-09T03:25:33.513Z,21.23
2019-02-09T03:28:02.640Z,27.03
2019-02-09T03:30:45.858Z,27.33
2019-02-09T03:33:01.817Z,65.90
2019-02-09T03:35:30.770Z,114.20
2019-02-09T03:37:59.500Z,78.30
2019-02-09T03:40:29.525Z,50.67
2019-02-09T03:42:58.328Z,37.80
2019-02-09T03:45:32.596Z,29.57
2019-02-09T03:48:02.109Z,26.47
2019-02-09T03:50:32.284Z,25.73
2019-02-09T03:53:01.720Z,37.50
2019-02-09T03:55:30.545Z,29.67
2019-02-09T03:57:59.864Z,34.73
2019-02-09T04:00:32.181Z,20.97
2019-02-09T04:03:02.770Z,26.60
2019-02-09T04:05:31.843Z,24.13
2019-02-09T04:08:00.571Z,24.13
2019-02-09T04:10:29.625Z,26.20
2019-02-09T04:12:58.756Z,24.93
2019-02-09T04:15:28.891Z,22.73
2019-02-09T04:18:00.247Z,25.03
2019-02-09T04:20:35.479Z,24.57
2019-02-09T04:23:07.591Z,24.47
2019-02-09T04:25:36.323Z,23.93
2019-02-09T04:28:05.236Z,23.77
2019-02-09T04:30:34.048Z,25.17
2019-02-09T04:33:02.767Z,30.47
2019-02-09T04:35:31.525Z,24.50
2019-02-09T04:38:00.363Z,24.13
2019-02-09T04:40:30.785Z,24.67
2019-02-09T04:42:59.948Z,24.27
2019-02-09T04:45:28.768Z,23.83
2019-02-09T04:47:57.608Z,24.67
2019-02-09T04:50:26.599Z,25.40
2019-02-09T04:52:55.328Z,31.37
2019-02-09T04:55:25.585Z,25.47
2019-02-09T04:57:54.447Z,23.67
2019-02-09T05:00:25.522Z,23.67
2019-02-09T05:02:54.243Z,23.60
2019-02-09T05:05:23.476Z,26.17
2019-02-09T05:07:52.207Z,24.03
2019-02-09T05:10:22.733Z,24.97
2019-02-09T05:12:51.616Z,49.43
2019-02-09T05:15:22.152Z,41.23
2019-02-09T05:17:51.176Z,28.60
2019-02-09T05:20:25.429Z,25.63
2019-02-09T05:22:54.727Z,25.00
2019-02-09T05:25:23.586Z,23.43
2019-02-09T05:27:52.555Z,26.40
2019-02-09T05:30:26.707Z,21.90
2019-02-09T05:32:55.834Z,22.97
2019-02-09T05:35:24.708Z,22.27
2019-02-09T05:37:53.444Z,22.67
2019-02-09T05:40:24.511Z,25.77
2019-02-09T05:42:53.681Z,23.57
2019-02-09T05:45:27.976Z,24.10
2019-02-09T05:47:56.896Z,27.20
2019-02-09T05:50:25.720Z,22.50
2019-02-09T05:52:54.439Z,23.43
2019-02-09T05:55:23.350Z,22.87
2019-02-09T05:57:52.069Z,28.93
2019-02-09T06:00:41.951Z,25.30
2019-02-09T06:03:10.671Z,28.00
2019-02-09T06:05:39.393Z,28.57
2019-02-09T06:08:08.222Z,22.07
2019-02-09T06:10:36.967Z,24.63
2019-02-09T06:13:05.696Z,24.97
2019-02-09T06:15:34.602Z,24.27
2019-02-09T06:18:03.325Z,28.33
2019-02-09T06:20:32.162Z,29.50
2019-02-09T06:23:01.137Z,24.23
2019-02-09T06:25:29.879Z,25.77
2019-02-09T06:27:58.622Z,25.23
2019-02-09T06:30:32.524Z,25.33
2019-02-09T06:33:01.254Z,28.20
2019-02-09T06:35:30.493Z,33.17
2019-02-09T06:37:59.598Z,29.43
2019-02-09T06:40:28.460Z,26.07
2019-02-09T06:42:57.304Z,25.97
2019-02-09T06:45:27.190Z,43.27
2019-02-09T06:48:15.103Z,48.47
2019-02-09T06:50:43.980Z,44.50
2019-02-09T06:53:12.709Z,35.13
2019-02-09T06:55:41.426Z,32.43
2019-02-09T06:58:10.252Z,32.80
2019-02-09T07:00:38.983Z,30.00
2019-02-09T07:03:07.813Z,27.00
2019-02-09T07:05:36.699Z,27.13
2019-02-09T07:08:06.040Z,24.17
2019-02-09T07:10:34.762Z,26.60
2019-02-09T07:13:03.723Z,29.70
2019-02-09T07:15:37.506Z,27.73
2019-02-09T07:18:07.333Z,51.63
2019-02-09T07:20:36.329Z,83.87
2019-02-09T07:23:06.668Z,103.27
2019-02-09T07:25:35.499Z,79.93
2019-02-09T07:28:05.403Z,60.47
2019-02-09T07:30:35.931Z,54.20
2019-02-09T07:33:06.652Z,35.70
2019-02-09T07:35:35.961Z,41.27
2019-02-09T07:38:04.983Z,31.77
2019-02-09T07:40:34.823Z,30.40
2019-02-09T07:43:03.717Z,24.30
2019-02-09T07:45:34.366Z,22.93
2019-02-09T07:48:03.087Z,27.10
2019-02-09T07:50:31.962Z,25.73
2019-02-09T07:53:01.215Z,28.17
2019-02-09T07:55:29.895Z,26.90
2019-02-09T07:57:58.662Z,28.50
2019-02-09T08:00:29.986Z,32.10
2019-02-09T08:02:59.109Z,30.93
2019-02-09T08:05:29.663Z,24.27
2019-02-09T08:07:58.893Z,25.60
2019-02-09T08:10:29.923Z,28.63
2019-02-09T08:12:59.595Z,22.60
2019-02-09T08:15:30.584Z,25.73
2019-02-09T08:17:59.512Z,23.73
2019-02-09T08:20:30.835Z,21.63
2019-02-09T08:23:01.704Z,24.43
2019-02-09T08:25:32.833Z,25.53
2019-02-09T08:28:02.512Z,23.70
2019-02-09T08:30:43.102Z,28.47
2019-02-09T08:33:12.001Z,26.40
2019-02-09T08:35:40.736Z,24.17
2019-02-09T08:38:10.258Z,28.87
2019-02-09T08:40:39.478Z,36.87
2019-02-09T08:43:08.217Z,23.33
2019-02-09T08:45:37.079Z,38.37
2019-02-09T08:48:07.798Z,34.60
2019-02-09T08:50:45.180Z,30.37
2019-02-09T08:53:18.859Z,25.57
2019-02-09T08:55:47.592Z,23.63
2019-02-09T08:58:16.317Z,22.83
2019-02-09T09:00:45.158Z,22.63
2019-02-09T09:03:13.882Z,23.50
2019-02-09T09:05:42.609Z,20.70
2019-02-09T09:08:11.831Z,22.13
2019-02-09T09:10:40.557Z,25.50
2019-02-09T09:13:09.296Z,26.97
2019-02-09T09:15:41.163Z,22.57
2019-02-09T09:18:10.005Z,29.20
2019-02-09T09:20:50.860Z,24.10
2019-02-09T09:23:19.611Z,29.33
2019-02-09T09:25:48.649Z,29.27
2019-02-09T09:28:17.498Z,23.80
2019-02-09T09:30:46.332Z,24.23
2019-02-09T09:33:15.065Z,19.77
2019-02-09T09:35:44.119Z,18.90
2019-02-09T09:38:12.906Z,21.87
2019-02-09T09:40:43.240Z,19.97
2019-02-09T09:43:12.200Z,22.57
2019-02-09T09:45:42.939Z,23.77
2019-02-09T09:48:14.068Z,19.23
2019-02-09T09:50:43.032Z,18.93
2019-02-09T09:53:11.755Z,18.87
2019-02-09T09:55:40.777Z,19.60
2019-02-09T09:58:09.969Z,16.30
2019-02-09T10:00:38.796Z,16.23
2019-02-09T10:03:09.274Z,19.37
2019-02-09T10:05:38.044Z,21.13
2019-02-09T10:08:07.403Z,22.00
2019-02-09T10:10:36.233Z,18.80
2019-02-09T10:13:05.915Z,21.57
2019-02-09T10:15:34.752Z,19.07
2019-02-09T10:18:03.482Z,21.33
2019-02-09T10:20:32.373Z,20.73
2019-02-09T10:23:01.195Z,35.43
2019-02-09T10:25:30.033Z,20.70
2019-02-09T10:27:59.244Z,20.67
2019-02-09T10:30:29.870Z,20.20
2019-02-09T10:32:58.596Z,21.23
2019-02-09T10:35:28.039Z,20.43
2019-02-09T10:37:56.863Z,21.13
2019-02-09T10:40:30.377Z,19.43
2019-02-09T10:42:59.549Z,18.43
2019-02-09T10:45:29.889Z,22.87
2019-02-09T10:48:00.195Z,21.63
2019-02-09T10:50:37.584Z,21.60
2019-02-09T10:53:06.518Z,21.50
2019-02-09T10:55:37.795Z,22.27
2019-02-09T10:58:06.956Z,21.37
2019-02-09T11:00:56.658Z,20.60
2019-02-09T11:03:25.563Z,19.00
2019-02-09T11:06:20.795Z,22.60
2019-02-09T11:11:59.983Z,20.47
2019-02-09T11:14:28.836Z,20.50
2019-02-09T11:16:57.583Z,21.27
2019-02-09T11:19:26.310Z,21.03
2019-02-09T11:21:55.192Z,20.93
2019-02-09T11:24:23.931Z,19.33
2019-02-09T11:26:52.667Z,18.80
2019-02-09T11:29:21.555Z,20.43
2019-02-09T11:31:50.285Z,19.13
2019-02-09T11:34:19.012Z,18.67
2019-02-09T11:36:48.113Z,20.17
2019-02-09T11:39:16.860Z,19.07
2019-02-09T11:41:45.625Z,20.17
2019-02-09T11:44:14.372Z,18.97
2019-02-09T11:46:43.125Z,19.00
2019-02-09T11:49:11.864Z,20.13
2019-02-09T11:51:40.635Z,18.27
2019-02-09T11:54:09.365Z,17.47
2019-02-09T11:56:38.097Z,20.97
2019-02-09T11:59:06.906Z,25.33
2019-02-09T12:01:36.118Z,18.43
2019-02-09T12:04:05.924Z,19.27
2019-02-09T12:06:34.780Z,19.53
2019-02-09T12:09:04.948Z,17.57
2019-02-09T12:11:33.688Z,18.87
2019-02-09T12:14:02.558Z,21.77
2019-02-09T12:16:31.285Z,18.53
2019-02-09T12:19:00.025Z,18.13
2019-02-09T12:21:28.795Z,18.93
2019-02-09T12:23:57.530Z,19.73
2019-02-09T12:26:26.276Z,19.93
2019-02-09T12:28:55.095Z,23.53
2019-02-09T12:31:23.822Z,22.23
2019-02-09T12:33:52.560Z,21.33
2019-02-09T12:36:21.438Z,22.47
2019-02-09T12:38:50.169Z,23.63
2019-02-09T12:41:18.908Z,27.20
2019-02-09T12:43:47.781Z,30.80
2019-02-09T12:46:16.512Z,30.60
2019-02-09T12:48:45.247Z,22.90
2019-02-09T12:51:14.149Z,23.30
2019-02-09T12:53:42.878Z,26.60
2019-02-09T12:56:11.605Z,24.53
2019-02-09T12:58:40.478Z,24.07
2019-02-09T13:01:09.223Z,22.80
2019-02-09T13:03:37.941Z,23.33
2019-02-09T13:06:06.845Z,25.50
2019-02-09T13:08:35.581Z,40.03
2019-02-09T13:11:04.717Z,33.17
2019-02-09T13:13:33.603Z,26.67
2019-02-09T13:16:02.328Z,27.60
2019-02-09T13:18:31.054Z,27.30
2019-02-09T13:21:00.179Z,25.03
2019-02-09T13:23:28.904Z,36.27
2019-02-09T13:25:58.335Z,36.47
2019-02-09T13:28:27.103Z,27.77
2019-02-09T13:30:55.842Z,28.50
2019-02-09T13:33:24.563Z,47.63
2019-02-09T13:35:53.373Z,41.33
2019-02-09T13:38:22.102Z,29.30
2019-02-09T13:40:50.830Z,32.30
2019-02-09T13:43:19.647Z,32.10
2019-02-09T13:45:50.682Z,31.93
2019-02-09T13:48:19.404Z,36.17
2019-02-09T13:50:48.296Z,40.50
2019-02-09T13:53:17.019Z,33.07
2019-02-09T13:55:45.797Z,39.33
2019-02-09T13:58:14.975Z,31.47
2019-02-09T14:00:43.710Z,31.13
2019-02-09T14:03:12.433Z,28.17
2019-02-09T14:05:41.211Z,30.07
2019-02-09T14:08:09.966Z,27.63
2019-02-09T14:10:38.701Z,41.67
2019-02-09T14:13:14.350Z,33.40
2019-02-09T14:15:39.342Z,26.70
2019-02-09T14:18:10.490Z,28.67
2019-02-09T14:20:39.467Z,34.50
2019-02-09T14:23:08.374Z,26.87
2019-02-09T14:25:37.108Z,27.70
2019-02-09T14:28:07.387Z,26.47
2019-02-09T14:30:38.752Z,39.07
2019-02-09T14:33:09.573Z,43.93
2019-02-09T14:35:39.077Z,31.67
2019-02-09T14:38:07.910Z,49.00
2019-02-09T14:40:36.633Z,44.50
2019-02-09T14:43:06.627Z,39.53
2019-02-09T14:45:37.671Z,25.07
2019-02-09T14:48:06.551Z,35.70
2019-02-09T14:50:35.759Z,41.80
2019-02-09T14:53:05.289Z,36.07
2019-02-09T14:55:38.497Z,33.53
2019-02-09T14:58:09.106Z,27.57
2019-02-09T15:00:40.851Z,29.90
2019-02-09T15:03:10.377Z,26.80
2019-02-09T15:05:39.278Z,40.23
2019-02-09T15:08:08.447Z,28.80
2019-02-09T15:10:37.274Z,34.07
2019-02-09T15:13:07.683Z,32.47
2019-02-09T15:15:48.647Z,97.23
2019-02-09T15:18:18.775Z,77.20
2019-02-09T15:20:53.023Z,82.73
2019-02-09T15:23:21.756Z,116.33
2019-02-09T15:25:50.558Z,105.77
2019-02-09T15:28:19.362Z,55.13
2019-02-09T15:30:48.098Z,38.00
2019-02-09T15:33:16.975Z,45.90
2019-02-09T15:35:45.701Z,34.43
2019-02-09T15:38:14.436Z,40.27
2019-02-09T15:40:43.220Z,41.67
2019-02-09T15:43:11.945Z,46.17
2019-02-09T15:45:40.677Z,50.67
2019-02-09T15:48:09.658Z,54.50
2019-02-09T15:50:38.385Z,59.03
2019-02-09T15:53:07.111Z,74.23
2019-02-09T15:55:35.906Z,51.33
2019-02-09T15:58:04.734Z,59.20
2019-02-09T16:00:33.669Z,89.83
2019-02-09T16:03:03.110Z,87.33
2019-02-09T16:05:31.844Z,107.13
2019-02-09T16:08:00.771Z,108.87
2019-02-09T16:10:29.595Z,101.97
2019-02-09T16:12:58.325Z,102.90
2019-02-09T16:15:31.174Z,81.20
2019-02-09T16:17:59.938Z,74.30
2019-02-09T16:20:31.579Z,77.47
2019-02-09T16:23:00.444Z,73.40
2019-02-09T16:25:29.437Z,81.50
2019-02-09T16:27:58.178Z,71.87
2019-02-09T16:30:28.055Z,111.67
2019-02-09T16:32:56.899Z,135.60
2019-02-09T16:35:27.538Z,95.03
2019-02-09T16:37:56.359Z,82.77
2019-02-09T16:40:34.149Z,103.13
2019-02-09T16:43:02.987Z,123.57
2019-02-09T16:45:34.647Z,154.43
2019-02-09T16:48:04.038Z,207.07
2019-02-09T16:50:32.767Z,226.50
2019-02-09T16:53:01.500Z,215.10
2019-02-09T16:55:30.386Z,239.50
2019-02-09T16:57:59.132Z,276.77
2019-02-09T17:00:33.463Z,291.17
2019-02-09T17:03:02.628Z,285.93
2019-02-09T17:05:31.358Z,265.30
2019-02-09T17:08:00.199Z,132.73
2019-02-09T17:10:29.242Z,152.97
2019-02-09T17:12:57.984Z,125.27
2019-02-09T17:15:28.624Z,155.30
2019-02-09T17:17:57.644Z,312.40
2019-02-09T17:20:26.380Z,495.83
2019-02-09T17:22:55.153Z,419.53
2019-02-09T17:25:25.582Z,404.43
2019-02-09T17:27:54.552Z,363.90
2019-02-09T17:30:32.206Z,318.83
2019-02-09T17:33:01.040Z,349.13
2019-02-09T17:35:29.782Z,296.20
2019-02-09T17:37:58.677Z,287.53
2019-02-09T17:40:36.214Z,300.70
2019-02-09T17:43:06.346Z,341.77
2019-02-09T17:45:49.659Z,373.83
2019-02-09T17:48:18.534Z,368.20
2019-02-09T17:50:47.272Z,390.23
2019-02-09T17:53:16.006Z,384.57
2019-02-09T17:55:45.211Z,407.57
2019-02-09T17:58:14.004Z,401.30
2019-02-09T18:00:50.137Z,401.60
2019-02-09T18:03:18.931Z,395.93
2019-02-09T18:05:47.667Z,423.87
2019-02-09T18:08:16.428Z,444.47
2019-02-09T18:10:45.322Z,489.47
2019-02-09T18:13:14.055Z,543.50
2019-02-09T18:15:42.816Z,499.50
2019-02-09T18:18:11.686Z,442.10
2019-02-09T18:20:40.427Z,411.63
2019-02-09T18:23:09.168Z,395.33
2019-02-09T18:25:38.385Z,354.57
2019-02-09T18:28:07.231Z,283.33
2019-02-09T18:30:36.667Z,225.13
2019-02-09T18:33:05.849Z,194.60
2019-02-09T18:35:34.579Z,173.17
2019-02-09T18:38:03.311Z,153.37
2019-02-09T18:40:32.668Z,153.63
2019-02-09T18:43:01.401Z,126.30
2019-02-09T18:45:31.760Z,131.13
2019-02-09T18:48:00.737Z,118.03
2019-02-09T18:50:30.874Z,118.93
2019-02-09T18:53:02.486Z,124.83
2019-02-09T18:55:32.145Z,113.27
2019-02-09T18:58:00.982Z,109.90
2019-02-09T19:00:32.628Z,121.17
2019-02-09T19:03:02.270Z,104.97
2019-02-09T19:05:31.016Z,112.83
2019-02-09T19:07:59.875Z,106.07
2019-02-09T19:10:29.358Z,102.67
2019-02-09T19:12:58.096Z,102.43
2019-02-09T19:15:28.708Z,182.30
2019-02-09T19:17:59.179Z,131.30
2019-02-09T19:20:46.392Z,88.60
2019-02-09T19:23:15.302Z,76.40
2019-02-09T19:25:44.126Z,71.83
2019-02-09T19:28:12.857Z,63.07
2019-02-09T19:30:42.105Z,60.63
2019-02-09T19:33:10.902Z,72.37
2019-02-09T19:35:39.633Z,61.50
2019-02-09T19:38:08.742Z,72.33
2019-02-09T19:40:37.476Z,79.87
2019-02-09T19:43:06.609Z,77.43
2019-02-09T19:45:37.414Z,80.00
2019-02-09T19:48:07.715Z,80.37
2019-02-09T19:50:36.464Z,73.00
2019-02-09T19:53:06.026Z,70.23
2019-02-09T19:55:37.844Z,70.40
2019-02-09T19:58:07.075Z,70.97
2019-02-09T20:00:38.919Z,93.43
2019-02-09T20:03:08.252Z,94.17
2019-02-09T20:05:36.981Z,72.83
2019-02-09T20:08:07.466Z,72.53
2019-02-09T20:10:41.475Z,76.80
2019-02-09T20:13:12.050Z,71.60
2019-02-09T20:15:40.981Z,69.10
2019-02-09T20:18:10.701Z,67.27
2019-02-09T20:20:46.829Z,81.10
2019-02-09T20:23:10.226Z,86.30
2019-02-09T20:25:38.982Z,83.03
2019-02-09T20:28:08.041Z,60.97
2019-02-09T20:30:39.073Z,57.37
2019-02-09T20:33:08.106Z,54.53
2019-02-09T20:35:39.262Z,67.10
2019-02-09T20:38:09.511Z,65.33
2019-02-09T20:40:47.789Z,78.80
2019-02-09T20:43:19.091Z,76.63
2019-02-09T20:45:48.018Z,88.80
2019-02-09T20:48:17.235Z,259.97
2019-02-09T20:50:46.139Z,199.53
2019-02-09T20:53:14.706Z,116.97
2019-02-09T20:55:43.607Z,108.27
2019-02-09T20:58:13.276Z,129.20
2019-02-09T21:00:42.071Z,103.77
2019-02-09T21:03:10.983Z,108.73
2019-02-09T21:05:39.742Z,99.43
2019-02-09T21:08:08.958Z,137.17
2019-02-09T21:10:40.466Z,97.80
2019-02-09T21:13:09.250Z,98.40
2019-02-09T21:15:38.194Z,94.87
2019-02-09T21:18:07.886Z,101.37
2019-02-09T21:20:36.727Z,108.67
2019-02-09T21:23:06.077Z,174.23
2019-02-09T21:25:43.478Z,232.87
2019-02-09T21:28:12.233Z,286.37
2019-02-09T21:30:43.737Z,207.13
2019-02-09T21:33:12.760Z,573.30
2019-02-09T21:35:44.435Z,131.20
2019-02-09T21:38:12.094Z,114.50
2019-02-09T21:40:40.994Z,131.13
2019-02-09T21:43:09.892Z,194.10
2019-02-09T21:45:45.024Z,200.43
2019-02-09T21:48:09.639Z,179.90
2019-02-09T21:50:39.198Z,179.17
2019-02-09T21:53:09.264Z,176.17
2019-02-09T21:55:40.880Z,161.60
2019-02-09T21:58:09.741Z,157.13
2019-02-09T22:00:49.090Z,142.53
2019-02-09T22:03:20.889Z,128.73
2019-02-09T22:05:51.997Z,133.80
2019-02-09T22:08:20.539Z,108.97
2019-02-09T22:10:50.802Z,99.63
2019-02-09T22:13:19.538Z,106.57
2019-02-09T22:15:48.442Z,188.63
2019-02-09T22:18:17.174Z,152.67
2019-02-09T22:20:52.941Z,116.83
2019-02-09T22:23:26.781Z,99.57
2019-02-09T22:25:52.962Z,103.93
2019-02-09T22:28:21.708Z,110.20
2019-02-09T22:30:53.040Z,112.83
2019-02-09T22:33:24.591Z,125.60
2019-02-09T22:35:59.884Z,120.10
2019-02-09T22:38:23.381Z,109.43
2019-02-09T22:40:52.152Z,91.77
2019-02-09T22:43:20.903Z,105.73
2019-02-09T22:45:49.724Z,105.50
2019-02-09T22:48:21.211Z,106.23
2019-02-09T22:50:52.731Z,122.73
2019-02-09T22:53:21.514Z,121.47
2019-02-09T22:55:50.479Z,108.77
2019-02-09T22:58:19.447Z,156.07
2019-02-09T23:00:58.969Z,101.33
2019-02-09T23:03:48.633Z,112.40
2019-02-09T23:06:38.614Z,117.03
2019-02-09T23:09:09.968Z,127.27
2019-02-09T23:11:41.477Z,125.37
2019-02-09T23:14:10.682Z,132.23
2019-02-09T23:16:39.440Z,120.07
2019-02-09T23:19:08.273Z,91.77
2019-02-09T23:21:37.132Z,90.63
2019-02-09T23:24:05.982Z,104.90
2019-02-09T23:26:34.728Z,109.87
2019-02-09T23:29:03.512Z,106.07
2019-02-09T23:31:32.265Z,114.00
2019-02-09T23:34:01.022Z,140.97
2019-02-09T23:36:29.819Z,123.27
2019-02-09T23:38:58.570Z,117.73
2019-02-09T23:41:29.290Z,116.63
2019-02-09T23:43:58.166Z,122.13
2019-02-09T23:46:26.897Z,117.90
2019-02-09T23:48:55.645Z,123.60
2019-02-09T23:51:24.410Z,134.40
2019-02-09T23:53:53.154Z,132.97
2019-02-09T23:56:21.897Z,132.70
2019-02-09T23:58:50.678Z,131.90
